Time;durP1;ratioP1;P1;durP2;ratioP2;P2;SDS_P1;SDS_P2;PMS_P1;PMS_P2;Temp;Humidity;BMP_temperature;BMP_pressure;BME280_temperature;BME280_humidity;BME280_pressure;Samples;Min_cycle;Max_cycle;Signal;HPM_P1;HPM_P2
2023/07/29 00:05:36;;;;;;;4.3;2.3;;;;;;;17.68;83.47;;;;;
2023/07/29 00:16:36;;;;;;;4.3;2.3;;;;;;;17.66;83.95;;;;;
2023/07/29 00:26:36;;;;;;;4.1;2.5;;;;;;;17.65;83.62;;;;;
2023/07/29 00:37:37;;;;;;;4.1;2.5;;;;;;;17.55;83.25;;;;;
2023/07/29 00:48:36;;;;;;;4.1;2.5;;;;;;;17.41;83.59;;;;;
2023/07/29 00:59:36;;;;;;;5.8;2.9;;;;;;;17.29;84;;;;;
2023/07/29 01:09:36;;;;;;;5.8;2.9;;;;;;;17.15;84.03;;;;;
2023/07/29 01:20:36;;;;;;;5.8;2.9;;;;;;;16.99;84.02;;;;;
2023/07/29 01:31:36;;;;;;;6.2;2.3;;;;;;;16.78;84.47;;;;;
2023/07/29 01:42:36;;;;;;;6.2;2.3;;;;;;;16.58;84.76;;;;;
2023/07/29 01:53:36;;;;;;;7.3;2.9;;;;;;;16.57;85.64;;;;;
2023/07/29 02:03:36;;;;;;;7.3;2.9;;;;;;;16.75;87.87;;;;;
2023/07/29 02:13:36;;;;;;;7.3;2.9;;;;;;;17.09;87.69;;;;;
2023/07/29 02:24:36;;;;;;;4.4;2.8;;;;;;;17.34;86.93;;;;;
2023/07/29 02:34:36;;;;;;;4.4;2.8;;;;;;;17.54;86.38;;;;;
2023/07/29 02:45:36;;;;;;;4.4;2.8;;;;;;;17.73;85.89;;;;;
2023/07/29 02:56:36;;;;;;;5.2;3.2;;;;;;;17.86;85.78;;;;;
2023/07/29 03:07:36;;;;;;;5.2;3.2;;;;;;;18.04;85.03;;;;;
2023/07/29 03:18:36;;;;;;;5.2;3.2;;;;;;;18;84.44;;;;;
2023/07/29 03:29:36;;;;;;;4.7;2.8;;;;;;;17.95;84.52;;;;;
2023/07/29 03:39:36;;;;;;;4.7;2.8;;;;;;;17.98;84.22;;;;;
2023/07/29 03:49:36;;;;;;;4.7;2.8;;;;;;;17.73;84.44;;;;;
2023/07/29 04:00:36;;;;;;;7.2;3.9;;;;;;;17.74;85.46;;;;;
2023/07/29 04:11:36;;;;;;;7.2;3.9;;;;;;;17.97;85.6;;;;;
2023/07/29 04:22:36;;;;;;;7;3.3;;;;;;;18.17;85.88;;;;;
2023/07/29 04:32:36;;;;;;;7;3.3;;;;;;;18.42;85.84;;;;;
2023/07/29 04:42:36;;;;;;;7;3.3;;;;;;;18.72;85.6;;;;;
2023/07/29 04:53:37;;;;;;;9.2;3.1;;;;;;;19.08;84.45;;;;;
2023/07/29 05:03:36;;;;;;;9.2;3.1;;;;;;;19.46;84.02;;;;;
2023/07/29 05:13:36;;;;;;;9.2;3.1;;;;;;;19.98;81.87;;;;;
2023/07/29 05:24:36;;;;;;;6.4;3;;;;;;;20.41;80.46;;;;;
2023/07/29 05:35:36;;;;;;;6.4;3;;;;;;;20.83;79.43;;;;;
2023/07/29 05:45:36;;;;;;;6.4;3;;;;;;;20.98;77.67;;;;;
2023/07/29 05:55:36;;;;;;;7.1;3.2;;;;;;;21.11;77.73;;;;;
2023/07/29 06:05:36;;;;;;;7.1;3.2;;;;;;;21.38;77.06;;;;;
2023/07/29 06:16:36;;;;;;;7.1;3.2;;;;;;;21.91;75.99;;;;;
2023/07/29 06:26:36;;;;;;;6.1;2.6;;;;;;;22.2;73;;;;;
2023/07/29 06:37:36;;;;;;;6.1;2.6;;;;;;;22.7;72.99;;;;;
2023/07/29 06:47:36;;;;;;;6.1;2.6;;;;;;;22.84;70.37;;;;;
2023/07/29 06:58:36;;;;;;;6.5;2.9;;;;;;;23.32;69.63;;;;;
2023/07/29 07:08:36;;;;;;;6.5;2.9;;;;;;;23.36;68.47;;;;;
2023/07/29 07:18:36;;;;;;;6.5;2.9;;;;;;;23.59;67.44;;;;;
2023/07/29 07:28:36;;;;;;;3.9;1.9;;;;;;;24.08;67.11;;;;;
2023/07/29 07:39:36;;;;;;;3.9;1.9;;;;;;;24.3;63.63;;;;;
2023/07/29 07:49:36;;;;;;;3.9;1.9;;;;;;;24.35;64.51;;;;;
2023/07/29 08:00:36;;;;;;;3.1;1.5;;;;;;;24.49;65.37;;;;;
2023/07/29 08:11:36;;;;;;;3.1;1.5;;;;;;;24.59;62.63;;;;;
2023/07/29 08:21:36;;;;;;;3.1;1.5;;;;;;;25.09;65.16;;;;;
2023/07/29 08:31:36;;;;;;;4.7;2.3;;;;;;;25.21;62.06;;;;;
2023/07/29 08:42:36;;;;;;;4.7;2.3;;;;;;;25.54;61.16;;;;;
2023/07/29 08:53:36;;;;;;;4.2;1.8;;;;;;;26.03;57.76;;;;;
2023/07/29 09:03:36;;;;;;;4.2;1.8;;;;;;;26.5;56.51;;;;;
2023/07/29 09:13:36;;;;;;;4.2;1.8;;;;;;;26.92;55.03;;;;;
2023/07/29 09:24:36;;;;;;;3.6;1.7;;;;;;;27.15;55.05;;;;;
2023/07/29 09:35:36;;;;;;;3.6;1.7;;;;;;;27.34;53.07;;;;;
2023/07/29 09:45:36;;;;;;;3.6;1.7;;;;;;;27.42;58.72;;;;;
2023/07/29 09:55:36;;;;;;;10.3;6;;;;;;;27.02;55.61;;;;;
2023/07/29 10:06:36;;;;;;;10.3;6;;;;;;;26.71;56.19;;;;;
2023/07/29 10:17:36;;;;;;;10.3;6;;;;;;;27.2;58.15;;;;;
2023/07/29 10:27:36;;;;;;;6.9;3.1;;;;;;;27.18;58.23;;;;;
2023/07/29 10:37:36;;;;;;;6.9;3.1;;;;;;;27.13;61.28;;;;;
2023/07/29 10:48:36;;;;;;;6.9;3.1;;;;;;;27.26;59.61;;;;;
2023/07/29 10:58:36;;;;;;;5.8;3.2;;;;;;;27.38;59.72;;;;;
2023/07/29 11:09:36;;;;;;;5.8;3.2;;;;;;;26.74;61.31;;;;;
2023/07/29 11:20:36;;;;;;;5.8;3.2;;;;;;;26.53;64.17;;;;;
2023/07/29 11:31:36;;;;;;;22.3;11.5;;;;;;;26.67;62.82;;;;;
2023/07/29 11:41:36;;;;;;;22.3;11.5;;;;;;;27.06;63.33;;;;;
2023/07/29 11:52:36;;;;;;;22.3;11.5;;;;;;;27.18;59.54;;;;;
2023/07/29 12:02:36;;;;;;;3;1.4;;;;;;;28.17;56.07;;;;;
2023/07/29 12:12:36;;;;;;;3;1.4;;;;;;;28.24;53.32;;;;;
2023/07/29 12:23:36;;;;;;;3.7;1.5;;;;;;;28.44;56.99;;;;;
2023/07/29 12:33:38;;;;;;;3.7;1.5;;;;;;;29.19;51.7;;;;;
2023/07/29 12:44:36;;;;;;;3.7;1.5;;;;;;;28.63;50.66;;;;;
2023/07/29 12:55:37;;;;;;;2.3;1.3;;;;;;;28.88;50.92;;;;;
2023/07/29 13:06:36;;;;;;;2.3;1.3;;;;;;;29.62;50.68;;;;;
2023/07/29 13:17:37;;;;;;;2.3;1.3;;;;;;;29.51;50.27;;;;;
2023/07/29 13:28:36;;;;;;;3.3;1.5;;;;;;;29.68;51.72;;;;;
2023/07/29 13:38:37;;;;;;;3.3;1.5;;;;;;;29.57;51.32;;;;;
2023/07/29 13:48:36;;;;;;;3.3;1.5;;;;;;;28.43;53.41;;;;;
2023/07/29 13:58:36;;;;;;;3.7;1.7;;;;;;;27.2;56.24;;;;;
2023/07/29 14:09:38;;;;;;;3.7;1.7;;;;;;;24.86;70.48;;;;;
2023/07/29 14:19:36;;;;;;;3.7;1.7;;;;;;;24.8;69.46;;;;;
2023/07/29 14:29:36;;;;;;;4.2;2;;;;;;;24.32;70.97;;;;;
2023/07/29 14:39:36;;;;;;;4.2;2;;;;;;;25.63;67.93;;;;;
2023/07/29 14:50:36;;;;;;;4.2;2;;;;;;;27.11;73.55;;;;;
2023/07/29 15:00:37;;;;;;;4.6;2.2;;;;;;;26.47;69.79;;;;;
2023/07/29 15:11:37;;;;;;;4.6;2.2;;;;;;;27.04;65.52;;;;;
2023/07/29 15:22:38;;;;;;;4.6;2.2;;;;;;;26.63;62.27;;;;;
2023/07/29 15:33:36;;;;;;;4.6;2;;;;;;;26.3;65.3;;;;;
2023/07/29 15:43:36;;;;;;;4.6;2;;;;;;;25.52;70.13;;;;;
2023/07/29 15:53:36;;;;;;;4.4;1.8;;;;;;;25.39;70.17;;;;;
2023/07/29 16:03:38;;;;;;;4.4;1.8;;;;;;;26.4;67.65;;;;;
2023/07/29 16:14:36;;;;;;;4.4;1.8;;;;;;;26.44;65.39;;;;;
2023/07/29 16:25:36;;;;;;;4.1;1.9;;;;;;;26.04;67.66;;;;;
2023/07/29 16:35:36;;;;;;;4.1;1.9;;;;;;;25.4;70.1;;;;;
2023/07/29 16:46:37;;;;;;;4.1;1.9;;;;;;;24.35;70.13;;;;;
2023/07/29 16:56:36;;;;;;;4.3;2.4;;;;;;;23.68;72.05;;;;;
2023/07/29 17:07:36;;;;;;;4.3;2.4;;;;;;;23.28;73.09;;;;;
2023/07/29 17:18:38;;;;;;;4.3;2.4;;;;;;;22.6;74.55;;;;;
2023/07/29 17:28:37;;;;;;;5.5;2.6;;;;;;;22.33;75.38;;;;;
2023/07/29 17:39:40;;;;;;;5.5;2.6;;;;;;;21.92;77.37;;;;;
2023/07/29 17:49:37;;;;;;;5.5;2.6;;;;;;;21.74;78.07;;;;;
2023/07/29 17:59:37;;;;;;;5.6;3.1;;;;;;;21.73;78.07;;;;;
2023/07/29 18:10:36;;;;;;;5.6;3.1;;;;;;;21.71;77.79;;;;;
2023/07/29 18:21:36;;;;;;;5.6;3.1;;;;;;;21.63;77.76;;;;;
2023/07/29 18:31:36;;;;;;;4.9;2.8;;;;;;;21.4;78.18;;;;;
2023/07/29 18:42:37;;;;;;;4.9;2.8;;;;;;;21.42;77.79;;;;;
2023/07/29 18:52:37;;;;;;;4.9;2.8;;;;;;;21.26;78.69;;;;;
2023/07/29 19:03:37;;;;;;;4.4;2.3;;;;;;;21.24;79.16;;;;;
2023/07/29 19:13:37;;;;;;;4.4;2.3;;;;;;;21.16;79.28;;;;;
2023/07/29 19:23:37;;;;;;;4.4;2.3;;;;;;;21.26;78.85;;;;;
2023/07/29 19:34:37;;;;;;;5.4;3;;;;;;;21.3;78.03;;;;;
2023/07/29 19:44:36;;;;;;;5.4;3;;;;;;;21.17;78.14;;;;;
2023/07/29 19:54:37;;;;;;;4.8;2.9;;;;;;;20.87;78.53;;;;;
2023/07/29 20:05:36;;;;;;;4.8;2.9;;;;;;;20.57;79.73;;;;;
2023/07/29 20:15:36;;;;;;;4.8;2.9;;;;;;;20.26;79.84;;;;;
2023/07/29 20:25:37;;;;;;;6.1;3;;;;;;;19.97;80.57;;;;;
2023/07/29 20:35:37;;;;;;;6.1;3;;;;;;;19.71;81.14;;;;;
2023/07/29 20:46:37;;;;;;;6.1;3;;;;;;;19.42;82.37;;;;;
2023/07/29 20:56:37;;;;;;;8.6;4.9;;;;;;;19.18;83.19;;;;;
2023/07/29 21:06:38;;;;;;;8.6;4.9;;;;;;;19.11;84.79;;;;;
2023/07/29 21:17:37;;;;;;;8.6;4.9;;;;;;;19.18;83.95;;;;;
2023/07/29 21:27:37;;;;;;;7.8;4.9;;;;;;;19.18;82.82;;;;;
2023/07/29 21:38:37;;;;;;;7.8;4.9;;;;;;;19.1;82.85;;;;;
2023/07/29 21:49:37;;;;;;;7.8;4.9;;;;;;;18.89;82.81;;;;;
2023/07/29 21:59:37;;;;;;;8.6;3.5;;;;;;;18.74;83.8;;;;;
2023/07/29 22:09:37;;;;;;;8.6;3.5;;;;;;;18.73;83.45;;;;;
2023/07/29 22:19:37;;;;;;;8.6;3.5;;;;;;;18.57;85.62;;;;;
2023/07/29 22:30:37;;;;;;;6.5;3.2;;;;;;;18.66;85.24;;;;;
2023/07/29 22:40:37;;;;;;;6.5;3.2;;;;;;;18.67;84.18;;;;;
2023/07/29 22:50:37;;;;;;;6.5;3.2;;;;;;;18.49;85.33;;;;;
2023/07/29 23:00:37;;;;;;;6.6;3.6;;;;;;;18.47;86.01;;;;;
2023/07/29 23:11:37;;;;;;;6.6;3.6;;;;;;;18.61;84.98;;;;;
2023/07/29 23:21:37;;;;;;;6.6;3.6;;;;;;;18.69;83.99;;;;;
2023/07/29 23:31:37;;;;;;;7.1;3.7;;;;;;;18.75;83.45;;;;;
2023/07/29 23:42:37;;;;;;;7.1;3.7;;;;;;;18.58;83.07;;;;;
2023/07/29 23:52:37;;;;;;;7.1;3.7;;;;;;;18.49;83.19;;;;;
